createdAt,value
2017-04-22T00:09:33.494Z,13
2017-04-22T00:19:33.288Z,10
2017-04-22T00:29:33.262Z,8
2017-04-22T00:39:33.411Z,6
2017-04-22T00:49:33.277Z,5
2017-04-22T00:59:33.995Z,2
2017-04-22T01:09:33.288Z,2
2017-04-22T01:19:33.280Z,2
2017-04-22T01:29:33.275Z,2
2017-04-22T01:39:33.247Z,2
2017-04-22T01:49:33.281Z,2
2017-04-22T01:59:33.358Z,2
2017-04-22T02:09:33.405Z,2
2017-04-22T02:19:33.407Z,2
2017-04-22T02:29:33.315Z,3
2017-04-22T02:39:33.553Z,2
2017-04-22T02:49:33.737Z,2
2017-04-22T02:59:33.257Z,2
2017-04-22T03:09:33.337Z,2
2017-04-22T03:19:34.249Z,3
2017-04-22T03:29:33.244Z,3
2017-04-22T03:39:43.120Z,3
2017-04-22T03:49:33.294Z,3
2017-04-22T03:59:33.221Z,3
2017-04-22T04:09:33.243Z,3
2017-04-22T04:19:33.810Z,4
2017-04-22T04:29:33.326Z,4
2017-04-22T04:39:33.233Z,5
2017-04-22T04:49:33.340Z,3
2017-04-22T04:59:33.215Z,4
2017-04-22T05:09:33.357Z,3
2017-04-22T05:19:33.821Z,3
2017-04-22T05:29:33.596Z,3
2017-04-22T05:39:33.394Z,2
2017-04-22T05:49:33.332Z,2
2017-04-22T05:59:33.236Z,4
2017-04-22T06:09:33.332Z,3
2017-04-22T06:19:33.253Z,3
2017-04-22T06:29:33.214Z,3
2017-04-22T06:39:33.227Z,3
2017-04-22T06:49:33.310Z,3
2017-04-22T06:59:33.277Z,2
2017-04-22T07:09:33.371Z,3
2017-04-22T07:19:33.346Z,3
2017-04-22T07:29:33.375Z,3
2017-04-22T07:39:33.282Z,2
2017-04-22T07:49:33.486Z,3
2017-04-22T07:59:33.341Z,2
2017-04-22T08:09:33.298Z,3
2017-04-22T08:19:33.452Z,1
2017-04-22T08:29:33.282Z,1
2017-04-22T08:39:33.374Z,2
2017-04-22T08:49:33.377Z,2
2017-04-22T08:59:33.237Z,1
2017-04-22T09:09:33.230Z,2
2017-04-22T09:19:33.398Z,2
2017-04-22T09:29:33.271Z,2
2017-04-22T09:39:33.453Z,2
2017-04-22T09:49:33.321Z,2
2017-04-22T09:59:33.253Z,2
2017-04-22T10:09:33.313Z,3
2017-04-22T10:19:33.258Z,2
2017-04-22T10:29:33.269Z,1
2017-04-22T10:39:33.361Z,1
2017-04-22T10:49:33.250Z,1
2017-04-22T10:59:33.297Z,1
2017-04-22T11:09:33.284Z,1
2017-04-22T11:19:33.379Z,3
2017-04-22T11:29:33.292Z,2
2017-04-22T11:39:33.513Z,2
2017-04-22T11:49:33.374Z,1
2017-04-22T11:59:33.283Z,1
2017-04-22T12:09:33.373Z,1
2017-04-22T12:19:33.299Z,1
2017-04-22T12:29:33.544Z,1
2017-04-22T12:39:33.828Z,1
2017-04-22T12:49:33.387Z,1
2017-04-22T12:59:33.393Z,1
2017-04-22T13:09:33.376Z,1
2017-04-22T13:19:33.403Z,1
2017-04-22T13:29:33.385Z,2
2017-04-22T13:39:33.360Z,1
2017-04-22T13:49:33.284Z,1
2017-04-22T13:59:33.345Z,2
2017-04-22T14:09:33.471Z,1
2017-04-22T14:19:33.551Z,2
2017-04-22T14:29:33.539Z,1
2017-04-22T14:39:33.290Z,2
2017-04-22T14:49:33.379Z,2
2017-04-22T14:59:33.727Z,2
2017-04-22T15:09:34.309Z,2
2017-04-22T15:19:34.910Z,1
2017-04-22T15:29:33.778Z,2
2017-04-22T15:39:35.863Z,1
2017-04-22T15:49:35.414Z,1
2017-04-22T15:59:35.221Z,2
2017-04-22T16:09:34.243Z,2
2017-04-22T16:19:34.627Z,2
2017-04-22T16:29:34.949Z,1
2017-04-22T16:39:34.987Z,1
2017-04-22T16:49:34.854Z,2
2017-04-22T16:59:34.288Z,2
2017-04-22T17:09:34.332Z,1
2017-04-22T17:19:34.113Z,1
2017-04-22T17:29:37.152Z,2
2017-04-22T17:39:35.185Z,1
2017-04-22T17:49:35.713Z,2
2017-04-22T17:59:37.301Z,2
2017-04-22T18:09:37.399Z,1
2017-04-22T18:19:36.721Z,2
2017-04-22T18:29:35.712Z,1
2017-04-22T18:39:39.189Z,2
2017-04-22T18:49:39.114Z,1
2017-04-22T18:59:39.765Z,2
2017-04-22T19:09:40.603Z,2
2017-04-22T19:19:36.642Z,2
2017-04-22T19:29:37.228Z,2
2017-04-22T19:39:44.930Z,2
2017-04-22T19:49:38.768Z,3
2017-04-22T19:59:37.834Z,3
2017-04-22T20:11:38.487Z,3
2017-04-22T20:19:39.567Z,2
2017-04-22T20:29:42.200Z,2
2017-04-22T20:39:41.917Z,2
2017-04-22T20:49:42.315Z,2
2017-04-22T20:59:37.803Z,3
2017-04-22T21:09:33.429Z,2
2017-04-22T21:19:33.259Z,3
2017-04-22T21:29:33.568Z,3
2017-04-22T21:39:33.306Z,3
2017-04-22T21:49:33.266Z,2
2017-04-22T21:59:33.302Z,3
2017-04-22T22:09:33.263Z,2
2017-04-22T22:19:33.399Z,3
2017-04-22T22:29:33.227Z,3
2017-04-22T22:39:33.266Z,3
2017-04-22T22:49:33.181Z,3
2017-04-22T22:59:33.259Z,3
2017-04-22T23:09:33.240Z,3
2017-04-22T23:19:33.256Z,4
2017-04-22T23:29:33.203Z,3
2017-04-22T23:39:33.205Z,3
2017-04-22T23:49:33.280Z,3
2017-04-22T23:59:33.241Z,3
